createdAt,value
2017-10-05T00:02:17.171Z,67.20
2017-10-05T00:04:45.129Z,67.40
2017-10-05T00:07:12.285Z,66.90
2017-10-05T00:09:39.482Z,66.50
2017-10-05T00:12:06.666Z,66.30
2017-10-05T00:14:34.616Z,66.90
2017-10-05T00:17:03.471Z,66.30
2017-10-05T00:19:31.378Z,66.70
2017-10-05T00:21:59.335Z,67.00
2017-10-05T00:24:26.476Z,67.00
2017-10-05T00:26:54.407Z,67.60
2017-10-05T00:29:22.375Z,66.70
2017-10-05T00:31:50.348Z,66.50
2017-10-05T00:34:18.283Z,66.40
2017-10-05T00:36:46.226Z,66.60
2017-10-05T00:39:14.163Z,66.60
2017-10-05T00:41:41.335Z,66.50
2017-10-05T00:44:09.436Z,66.60
2017-10-05T00:46:38.288Z,67.10
2017-10-05T00:49:06.296Z,67.00
2017-10-05T00:51:34.225Z,66.60
2017-10-05T00:54:01.420Z,66.60
2017-10-05T00:56:29.342Z,66.60
2017-10-05T00:58:57.306Z,66.50
2017-10-05T01:01:24.487Z,66.60
2017-10-05T01:03:52.475Z,66.50
2017-10-05T01:06:20.398Z,68.30
2017-10-05T01:08:47.576Z,67.50
2017-10-05T01:11:14.723Z,67.30
2017-10-05T01:13:42.629Z,66.10
2017-10-05T01:16:11.387Z,65.90
2017-10-05T01:18:38.531Z,65.80
2017-10-05T01:21:06.632Z,65.60
2017-10-05T01:23:34.552Z,65.60
2017-10-05T01:26:02.595Z,65.60
2017-10-05T01:28:29.779Z,65.30
2017-10-05T01:30:57.705Z,65.50
2017-10-05T01:33:25.644Z,65.80
2017-10-05T01:35:53.558Z,65.80
2017-10-05T01:38:20.740Z,66.20
2017-10-05T01:40:48.805Z,66.50
2017-10-05T01:43:15.986Z,66.10
2017-10-05T01:45:43.958Z,66.10
2017-10-05T01:48:11.102Z,66.00
2017-10-05T01:50:39.248Z,65.90
2017-10-05T01:53:07.312Z,66.20
2017-10-05T01:55:35.376Z,66.20
2017-10-05T01:58:02.564Z,66.20
2017-10-05T02:00:30.479Z,66.60
2017-10-05T02:02:58.422Z,66.80
2017-10-05T02:05:26.353Z,66.80
2017-10-05T02:07:53.541Z,66.40
2017-10-05T02:10:21.547Z,66.20
2017-10-05T02:12:50.380Z,66.30
2017-10-05T02:15:18.286Z,66.20
2017-10-05T02:17:45.475Z,66.20
2017-10-05T02:20:13.392Z,66.20
2017-10-05T02:22:41.511Z,66.30
2017-10-05T02:25:08.662Z,66.40
2017-10-05T02:27:35.815Z,66.40
2017-10-05T02:30:03.915Z,67.00
2017-10-05T02:32:31.061Z,66.70
2017-10-05T02:34:59.011Z,66.20
2017-10-05T02:37:26.200Z,66.30
2017-10-05T02:39:53.343Z,66.20
2017-10-05T02:42:20.534Z,66.20
2017-10-05T02:44:49.219Z,66.30
2017-10-05T02:47:17.136Z,66.20
2017-10-05T02:49:45.225Z,66.20
2017-10-05T02:52:12.371Z,66.20
2017-10-05T02:54:39.559Z,67.10
2017-10-05T02:57:06.752Z,66.30
2017-10-05T02:59:33.907Z,66.20
2017-10-05T03:02:01.819Z,66.20
2017-10-05T03:04:28.999Z,66.10
2017-10-05T03:06:56.917Z,66.20
2017-10-05T03:09:24.100Z,66.10
2017-10-05T03:11:51.247Z,66.30
2017-10-05T03:14:18.434Z,66.60
2017-10-05T03:16:46.508Z,66.20
2017-10-05T03:19:13.655Z,67.00
2017-10-05T03:21:41.768Z,66.70
2017-10-05T03:24:08.921Z,66.40
2017-10-05T03:26:36.887Z,66.20
2017-10-05T03:29:04.032Z,66.20
2017-10-05T03:31:31.954Z,66.20
2017-10-05T03:33:59.906Z,66.20
2017-10-05T03:36:27.954Z,66.20
2017-10-05T03:38:55.103Z,67.00
2017-10-05T03:41:23.176Z,66.20
2017-10-05T03:43:51.268Z,67.00
2017-10-05T03:46:19.359Z,67.40
2017-10-05T03:48:47.416Z,66.30
2017-10-05T03:51:15.383Z,66.10
2017-10-05T03:53:42.533Z,66.20
2017-10-05T03:56:10.605Z,66.20
2017-10-05T03:58:37.792Z,66.10
2017-10-05T04:01:06.556Z,66.20
2017-10-05T04:03:33.703Z,66.20
2017-10-05T04:06:01.795Z,66.10
2017-10-05T04:08:29.748Z,66.30
2017-10-05T04:10:57.854Z,66.20
2017-10-05T04:13:25.770Z,66.10
2017-10-05T04:15:53.688Z,66.00
2017-10-05T04:18:21.652Z,66.00
2017-10-05T04:20:50.343Z,66.00
2017-10-05T04:23:18.252Z,66.00
2017-10-05T04:25:46.216Z,66.00
2017-10-05T04:28:13.396Z,66.10
2017-10-05T04:30:40.535Z,66.60
2017-10-05T04:33:07.679Z,66.40
2017-10-05T04:35:34.873Z,66.00
2017-10-05T04:38:03.568Z,66.20
2017-10-05T04:40:31.477Z,66.20
2017-10-05T04:42:59.475Z,66.10
2017-10-05T04:45:26.623Z,66.70
2017-10-05T04:47:54.519Z,66.20
2017-10-05T04:50:22.474Z,67.40
2017-10-05T04:52:50.420Z,66.90
2017-10-05T04:55:17.568Z,67.20
2017-10-05T04:57:45.519Z,66.50
2017-10-05T05:00:12.704Z,66.30
2017-10-05T05:02:40.792Z,66.20
2017-10-05T05:05:07.979Z,66.30
2017-10-05T05:07:35.131Z,66.50
2017-10-05T05:10:03.043Z,66.50
2017-10-05T05:12:30.224Z,66.60
2017-10-05T05:14:58.284Z,67.40
2017-10-05T05:17:26.380Z,67.00
2017-10-05T05:19:54.572Z,66.60
2017-10-05T05:22:22.631Z,66.60
2017-10-05T05:24:50.546Z,67.10
2017-10-05T05:27:17.739Z,67.10
2017-10-05T05:29:45.678Z,67.50
2017-10-05T05:32:13.747Z,66.70
2017-10-05T05:34:41.735Z,66.50
2017-10-05T05:37:09.817Z,66.30
2017-10-05T05:39:37.451Z,66.20
2017-10-05T05:42:05.408Z,66.00
2017-10-05T05:44:32.587Z,65.80
2017-10-05T05:47:01.499Z,65.60
2017-10-05T05:49:28.692Z,65.60
2017-10-05T05:51:56.613Z,65.60
2017-10-05T05:54:23.772Z,65.80
2017-10-05T05:56:51.733Z,66.00
2017-10-05T05:59:18.912Z,66.70
2017-10-05T06:01:47.781Z,66.40
2017-10-05T06:04:14.958Z,66.40
2017-10-05T06:06:43.792Z,66.30
2017-10-05T06:09:10.974Z,66.30
2017-10-05T06:11:38.124Z,66.20
2017-10-05T06:14:06.071Z,66.30
2017-10-05T06:16:33.218Z,66.30
2017-10-05T06:19:00.407Z,66.40
2017-10-05T06:21:28.321Z,67.00
2017-10-05T06:23:56.239Z,67.00
2017-10-05T06:26:23.424Z,66.70
2017-10-05T06:28:50.571Z,66.50
2017-10-05T06:31:18.058Z,67.20
2017-10-05T06:33:45.251Z,66.50
2017-10-05T06:36:13.930Z,66.80
2017-10-05T06:38:41.087Z,66.70
2017-10-05T06:41:08.266Z,67.40
2017-10-05T06:43:35.410Z,67.00
2017-10-05T06:46:04.189Z,66.70
2017-10-05T06:48:32.098Z,66.90
2017-10-05T06:50:59.243Z,66.80
2017-10-05T06:53:27.339Z,66.80
2017-10-05T06:55:55.278Z,67.80
2017-10-05T06:58:23.210Z,67.00
2017-10-05T07:00:50.405Z,67.00
2017-10-05T07:03:17.555Z,67.70
2017-10-05T07:05:45.483Z,67.00
2017-10-05T07:08:12.671Z,66.80
2017-10-05T07:10:40.722Z,66.90
2017-10-05T07:13:08.639Z,67.00
2017-10-05T07:15:36.647Z,66.90
2017-10-05T07:18:03.843Z,66.80
2017-10-05T07:20:33.578Z,67.00
2017-10-05T07:23:00.835Z,67.10
2017-10-05T07:25:28.038Z,68.00
2017-10-05T07:27:55.954Z,67.00
2017-10-05T07:30:23.128Z,67.00
2017-10-05T07:32:50.373Z,67.00
2017-10-05T07:35:18.442Z,66.90
2017-10-05T07:37:45.590Z,67.00
2017-10-05T07:40:13.576Z,67.10
2017-10-05T07:42:40.719Z,67.10
2017-10-05T07:45:07.867Z,67.50
2017-10-05T07:47:35.059Z,68.00
2017-10-05T07:50:03.023Z,67.30
2017-10-05T07:52:30.947Z,67.40
2017-10-05T07:54:58.567Z,67.20
2017-10-05T07:57:25.723Z,67.30
2017-10-05T07:59:52.870Z,67.30
2017-10-05T08:02:20.948Z,67.50
2017-10-05T08:04:48.090Z,67.30
2017-10-05T08:07:16.818Z,68.00
2017-10-05T08:09:43.975Z,68.00
2017-10-05T08:12:11.896Z,67.30
2017-10-05T08:14:40.613Z,67.20
2017-10-05T08:17:07.766Z,67.20
2017-10-05T08:19:34.978Z,67.00
2017-10-05T08:22:02.890Z,66.50
2017-10-05T08:24:30.037Z,66.50
2017-10-05T08:26:57.219Z,66.40
2017-10-05T08:29:25.151Z,66.20
2017-10-05T08:31:52.344Z,66.20
2017-10-05T08:34:19.496Z,66.20
2017-10-05T08:36:47.429Z,66.30
2017-10-05T08:39:15.531Z,66.40
2017-10-05T08:41:42.683Z,66.70
2017-10-05T08:44:10.645Z,66.90
2017-10-05T08:46:37.802Z,66.90
2017-10-05T08:49:05.777Z,66.80
2017-10-05T08:51:32.962Z,66.80
2017-10-05T08:54:00.880Z,67.00
2017-10-05T08:56:28.059Z,67.00
2017-10-05T08:58:55.255Z,67.10
2017-10-05T09:01:22.403Z,67.10
2017-10-05T09:03:49.543Z,67.80
2017-10-05T09:06:18.310Z,67.10
2017-10-05T09:08:45.459Z,67.10
2017-10-05T09:11:12.599Z,67.30
2017-10-05T09:13:39.785Z,67.60
2017-10-05T09:16:08.507Z,67.00
2017-10-05T09:18:35.702Z,67.00
2017-10-05T09:21:02.856Z,66.90
2017-10-05T09:23:30.773Z,67.60
2017-10-05T09:25:58.600Z,66.90
2017-10-05T09:28:26.510Z,67.50
2017-10-05T09:30:53.692Z,67.50
2017-10-05T09:33:20.837Z,67.10
2017-10-05T09:35:48.951Z,67.00
2017-10-05T09:38:16.903Z,67.00
2017-10-05T09:40:44.846Z,67.00
2017-10-05T09:43:11.998Z,67.00
2017-10-05T09:45:39.175Z,67.10
2017-10-05T09:48:07.226Z,67.10
2017-10-05T09:50:34.419Z,67.10
2017-10-05T09:53:02.366Z,67.30
2017-10-05T09:55:29.538Z,67.30
2017-10-05T09:57:57.480Z,67.40
2017-10-05T10:00:24.618Z,67.40
2017-10-05T10:02:51.807Z,67.50
2017-10-05T10:05:20.663Z,67.70
2017-10-05T10:07:48.570Z,68.10
2017-10-05T10:10:17.318Z,67.40
2017-10-05T10:12:44.459Z,67.40
2017-10-05T10:15:11.634Z,67.40
2017-10-05T10:17:39.692Z,67.40
2017-10-05T10:20:07.227Z,67.30
2017-10-05T10:22:34.375Z,67.30
2017-10-05T10:25:01.524Z,67.50
2017-10-05T10:27:29.631Z,67.40
2017-10-05T10:29:57.581Z,67.40
2017-10-05T10:32:24.744Z,67.50
2017-10-05T10:34:51.935Z,67.70
2017-10-05T10:37:19.855Z,67.80
2017-10-05T10:39:47.899Z,67.80
2017-10-05T10:42:15.091Z,67.70
2017-10-05T10:44:42.239Z,67.90
2017-10-05T10:47:09.390Z,67.90
2017-10-05T10:49:37.352Z,67.90
2017-10-05T10:52:04.502Z,67.90
2017-10-05T10:54:32.598Z,67.80
2017-10-05T10:57:00.518Z,68.60
2017-10-05T10:59:28.568Z,68.20
2017-10-05T11:01:57.426Z,68.20
2017-10-05T11:04:24.567Z,68.20
2017-10-05T11:06:51.716Z,68.20
2017-10-05T11:09:18.898Z,68.10
2017-10-05T11:11:46.819Z,67.80
2017-10-05T11:14:13.995Z,68.10
2017-10-05T11:16:41.173Z,68.10
2017-10-05T11:19:08.320Z,68.40
2017-10-05T11:21:35.494Z,68.40
2017-10-05T11:24:03.400Z,68.30
2017-10-05T11:26:30.579Z,68.20
2017-10-05T11:28:58.569Z,68.20
2017-10-05T11:31:25.710Z,68.20
2017-10-05T11:33:52.858Z,68.10
2017-10-05T11:36:20.063Z,68.70
2017-10-05T11:38:48.114Z,68.80
2017-10-05T11:41:16.952Z,68.50
2017-10-05T11:43:44.139Z,68.40
2017-10-05T11:46:12.063Z,68.10
2017-10-05T11:48:39.242Z,67.90
2017-10-05T11:51:07.334Z,68.30
2017-10-05T11:53:34.487Z,68.10
2017-10-05T11:56:02.443Z,68.60
2017-10-05T11:58:29.618Z,68.10
2017-10-05T12:00:57.568Z,68.30
2017-10-05T12:03:24.714Z,68.20
2017-10-05T12:05:52.787Z,68.30
2017-10-05T12:08:19.979Z,68.30
2017-10-05T12:10:48.038Z,68.70
2017-10-05T12:13:16.791Z,68.60
2017-10-05T12:15:44.727Z,68.50
2017-10-05T12:18:12.811Z,69.30
2017-10-05T12:20:40.099Z,68.70
2017-10-05T12:23:07.244Z,68.50
2017-10-05T12:25:35.203Z,68.60
2017-10-05T12:28:03.079Z,68.40
2017-10-05T12:30:31.189Z,68.50
2017-10-05T12:32:59.143Z,68.50
2017-10-05T12:35:27.839Z,68.60
2017-10-05T12:37:55.782Z,68.70
2017-10-05T12:40:23.874Z,68.60
2017-10-05T12:42:52.690Z,69.00
2017-10-05T12:45:20.609Z,69.00
2017-10-05T12:47:48.583Z,69.00
2017-10-05T12:50:16.514Z,69.00
2017-10-05T12:52:44.596Z,69.00
2017-10-05T12:55:12.685Z,69.60
2017-10-05T12:57:40.747Z,69.20
2017-10-05T13:00:08.819Z,69.00
2017-10-05T13:02:35.971Z,69.00
2017-10-05T13:05:03.947Z,69.00
2017-10-05T13:07:31.095Z,69.00
2017-10-05T13:09:58.246Z,68.90
2017-10-05T13:12:25.428Z,69.00
2017-10-05T13:14:53.539Z,69.00
2017-10-05T13:17:20.744Z,69.30
2017-10-05T13:19:48.707Z,69.20
2017-10-05T13:22:15.852Z,69.30
2017-10-05T13:24:43.791Z,69.30
2017-10-05T13:27:11.727Z,69.90
2017-10-05T13:29:40.587Z,69.30
2017-10-05T13:32:07.726Z,69.30
2017-10-05T13:34:34.870Z,69.20
2017-10-05T13:37:02.959Z,69.10
2017-10-05T13:39:30.105Z,69.00
2017-10-05T13:41:58.091Z,69.10
2017-10-05T13:44:26.026Z,69.70
2017-10-05T13:46:53.975Z,70.50
2017-10-05T13:49:21.914Z,69.50
2017-10-05T13:51:49.998Z,68.90
2017-10-05T13:54:17.914Z,68.70
2017-10-05T13:56:45.861Z,68.70
2017-10-05T13:59:13.039Z,68.40
2017-10-05T14:01:41.150Z,68.30
2017-10-05T14:04:08.345Z,68.30
2017-10-05T14:06:35.639Z,68.30
2017-10-05T14:09:02.796Z,68.30
2017-10-05T14:11:30.903Z,68.40
2017-10-05T14:13:59.707Z,68.40
2017-10-05T14:16:26.900Z,68.40
2017-10-05T14:18:54.043Z,68.50
2017-10-05T14:21:21.958Z,68.40
2017-10-05T14:23:50.811Z,68.30
2017-10-05T14:26:18.934Z,68.30
2017-10-05T14:28:46.990Z,68.50
2017-10-05T14:31:15.835Z,68.50
2017-10-05T14:33:43.874Z,68.50
2017-10-05T14:36:11.972Z,68.60
2017-10-05T14:38:40.007Z,68.40
2017-10-05T14:41:08.856Z,69.10
2017-10-05T14:43:36.955Z,69.10
2017-10-05T14:46:05.856Z,69.20
2017-10-05T14:48:33.771Z,69.20
2017-10-05T14:51:01.724Z,69.20
2017-10-05T14:53:29.638Z,69.00
2017-10-05T14:55:57.743Z,69.30
2017-10-05T14:58:25.650Z,68.90
2017-10-05T15:00:53.583Z,68.90
2017-10-05T15:03:21.532Z,68.90
2017-10-05T15:05:48.676Z,68.90
2017-10-05T15:08:15.874Z,68.90
2017-10-05T15:10:43.024Z,68.80
2017-10-05T15:13:10.171Z,68.80
2017-10-05T15:15:38.555Z,69.90
2017-10-05T15:18:05.751Z,71.40
2017-10-05T15:20:33.809Z,70.50
2017-10-05T15:23:00.959Z,69.60
2017-10-05T15:25:28.147Z,69.30
2017-10-05T15:27:55.314Z,69.90
2017-10-05T15:30:24.156Z,69.00
2017-10-05T15:32:52.835Z,69.20
2017-10-05T15:35:20.932Z,69.20
2017-10-05T15:37:48.077Z,71.60
2017-10-05T15:40:15.255Z,71.90
2017-10-05T15:42:44.148Z,70.20
2017-10-05T15:45:12.065Z,69.90
2017-10-05T15:47:39.247Z,69.90
2017-10-05T15:50:06.399Z,70.40
2017-10-05T15:52:34.504Z,69.50
2017-10-05T15:55:02.420Z,69.40
2017-10-05T15:57:30.515Z,69.40
2017-10-05T15:59:57.710Z,69.50
2017-10-05T16:02:24.859Z,70.70
2017-10-05T16:04:52.007Z,71.20
2017-10-05T16:07:19.204Z,70.80
2017-10-05T16:09:46.407Z,70.00
2017-10-05T16:12:18.686Z,69.50
2017-10-05T16:14:46.232Z,69.50
2017-10-05T16:17:16.474Z,69.80
2017-10-05T16:19:43.739Z,70.10
2017-10-05T16:22:11.514Z,70.10
2017-10-05T16:24:41.145Z,69.60
2017-10-05T16:27:11.287Z,70.60
2017-10-05T16:32:33.339Z,71.80
2017-10-05T16:35:03.388Z,70.50
2017-10-05T16:37:36.145Z,70.50
2017-10-05T16:40:11.031Z,69.70
2017-10-05T16:42:41.837Z,69.70
2017-10-05T16:45:11.600Z,69.90
2017-10-05T16:47:44.377Z,70.10
2017-10-05T16:50:21.570Z,70.10
2017-10-05T16:52:52.019Z,69.90
2017-10-05T16:55:19.955Z,69.60
2017-10-05T16:57:47.136Z,69.60
2017-10-05T17:00:14.325Z,69.50
2017-10-05T17:02:41.507Z,69.20
2017-10-05T17:05:08.664Z,69.30
2017-10-05T17:07:36.655Z,69.70
2017-10-05T17:10:03.840Z,69.30
2017-10-05T17:12:31.747Z,68.80
2017-10-05T17:14:59.709Z,68.80
2017-10-05T17:17:26.858Z,68.80
2017-10-05T17:19:54.047Z,68.70
2017-10-05T17:22:22.143Z,68.80
2017-10-05T17:24:50.051Z,69.40
2017-10-05T17:27:17.987Z,68.60
2017-10-05T17:29:45.938Z,68.80
2017-10-05T17:32:13.135Z,68.70
2017-10-05T17:34:41.189Z,68.50
2017-10-05T17:37:10.026Z,68.10
2017-10-05T17:39:38.017Z,68.00
2017-10-05T17:42:05.938Z,68.30
2017-10-05T17:44:33.989Z,68.90
2017-10-05T17:47:01.943Z,68.50
2017-10-05T17:49:29.091Z,68.50
2017-10-05T17:51:57.232Z,67.90
2017-10-05T17:54:24.419Z,67.90
2017-10-05T17:56:52.469Z,67.80
2017-10-05T17:59:19.651Z,68.00
2017-10-05T18:01:46.804Z,67.80
2017-10-05T18:04:14.008Z,68.00
2017-10-05T18:06:42.063Z,67.80
2017-10-05T18:09:09.978Z,67.90
2017-10-05T18:11:38.058Z,67.90
2017-10-05T18:14:05.203Z,68.30
2017-10-05T18:16:33.204Z,67.80
2017-10-05T18:19:00.352Z,67.70
2017-10-05T18:21:27.499Z,67.60
2017-10-05T18:23:54.695Z,67.60
2017-10-05T18:26:21.846Z,67.60
2017-10-05T18:28:49.840Z,67.90
2017-10-05T18:31:17.028Z,68.00
2017-10-05T18:33:44.176Z,67.80
2017-10-05T18:36:11.359Z,67.70
2017-10-05T18:38:39.303Z,67.40
2017-10-05T18:41:07.388Z,67.40
2017-10-05T18:43:35.346Z,67.50
2017-10-05T18:46:02.492Z,66.80
2017-10-05T18:48:30.435Z,66.50
2017-10-05T18:50:57.631Z,66.80
2017-10-05T18:53:25.553Z,67.80
2017-10-05T18:55:53.122Z,67.00
2017-10-05T18:58:21.119Z,67.00
2017-10-05T19:00:49.175Z,67.10
2017-10-05T19:03:17.262Z,67.00
2017-10-05T19:05:45.050Z,67.00
2017-10-05T19:08:13.001Z,67.70
2017-10-05T19:10:41.096Z,67.70
2017-10-05T19:13:08.323Z,67.60
2017-10-05T19:15:36.238Z,67.20
2017-10-05T19:18:04.199Z,67.20
2017-10-05T19:20:32.120Z,67.20
2017-10-05T19:23:00.076Z,67.20
2017-10-05T19:25:27.268Z,67.10
2017-10-05T19:27:55.339Z,67.00
2017-10-05T19:30:22.486Z,67.10
2017-10-05T19:32:49.671Z,67.10
2017-10-05T19:35:17.659Z,67.00
2017-10-05T19:37:44.844Z,67.00
2017-10-05T19:40:12.031Z,67.30
2017-10-05T19:42:39.206Z,66.90
2017-10-05T19:45:07.131Z,66.90
2017-10-05T19:47:34.320Z,66.80
2017-10-05T19:50:01.509Z,66.80
2017-10-05T19:52:28.659Z,66.70
2017-10-05T19:54:56.732Z,66.80
2017-10-05T19:57:24.735Z,66.70
2017-10-05T19:59:51.887Z,66.60
2017-10-05T20:02:19.067Z,66.60
2017-10-05T20:04:46.217Z,66.80
2017-10-05T20:07:13.414Z,67.00
2017-10-05T20:09:40.570Z,66.90
2017-10-05T20:12:07.735Z,66.60
2017-10-05T20:14:35.590Z,66.70
2017-10-05T20:17:22.660Z,66.60
2017-10-05T20:19:55.699Z,66.60
2017-10-05T20:22:29.439Z,66.70
2017-10-05T20:25:13.403Z,66.70
2017-10-05T20:27:59.244Z,66.80
2017-10-05T20:30:36.329Z,66.70
2017-10-05T20:33:04.411Z,66.80
2017-10-05T20:35:31.595Z,67.00
2017-10-05T20:37:58.739Z,67.30
2017-10-05T20:40:26.730Z,66.70
2017-10-05T20:42:55.426Z,66.60
2017-10-05T20:45:24.266Z,66.70
2017-10-05T20:47:51.451Z,66.70
2017-10-05T20:50:19.391Z,66.60
2017-10-05T20:52:46.590Z,66.70
2017-10-05T20:55:14.513Z,66.70
2017-10-05T20:57:42.555Z,66.70
2017-10-05T21:00:10.512Z,66.70
2017-10-05T21:02:38.493Z,66.60
2017-10-05T21:05:06.435Z,67.00
2017-10-05T21:07:35.292Z,66.80
2017-10-05T21:10:02.728Z,66.80
2017-10-05T21:12:29.870Z,66.50
2017-10-05T21:14:57.935Z,66.50
2017-10-05T21:17:25.133Z,66.60
2017-10-05T21:19:53.183Z,66.50
2017-10-05T21:22:20.339Z,66.50
2017-10-05T21:24:47.525Z,66.80
2017-10-05T21:27:14.703Z,66.50
2017-10-05T21:29:41.857Z,66.70
2017-10-05T21:32:10.034Z,67.00
2017-10-05T21:34:38.096Z,67.10
2017-10-05T21:37:07.000Z,66.60
2017-10-05T21:39:34.140Z,66.50
2017-10-05T21:42:02.060Z,66.40
2017-10-05T21:44:30.167Z,66.40
2017-10-05T21:46:58.086Z,66.50
2017-10-05T21:49:26.211Z,66.40
2017-10-05T21:51:54.123Z,66.70
2017-10-05T21:54:22.088Z,66.60
2017-10-05T21:56:49.236Z,66.50
2017-10-05T21:59:17.340Z,66.90
2017-10-05T22:01:45.258Z,66.80
2017-10-05T22:04:14.180Z,66.40
2017-10-05T22:06:41.363Z,66.40
2017-10-05T22:09:09.287Z,66.40
2017-10-05T22:11:36.467Z,66.40
2017-10-05T22:14:03.624Z,66.20
2017-10-05T22:16:30.822Z,66.30
2017-10-05T22:18:58.830Z,66.60
2017-10-05T22:21:25.970Z,66.60
2017-10-05T22:23:53.413Z,66.40
2017-10-05T22:26:21.574Z,67.30
2017-10-05T22:28:50.459Z,66.60
2017-10-05T22:31:18.368Z,66.60
2017-10-05T22:33:46.330Z,66.60
2017-10-05T22:36:14.471Z,66.50
2017-10-05T22:38:41.614Z,66.50
2017-10-05T22:41:08.807Z,66.40
2017-10-05T22:43:36.859Z,66.30
2017-10-05T22:46:04.767Z,66.50
2017-10-05T22:48:31.946Z,66.50
2017-10-05T22:51:00.009Z,66.40
2017-10-05T22:53:27.202Z,66.40
2017-10-05T22:55:55.115Z,66.70
2017-10-05T22:58:23.026Z,66.70
2017-10-05T23:00:51.062Z,66.60
2017-10-05T23:03:18.204Z,66.60
2017-10-05T23:05:45.383Z,66.40
2017-10-05T23:08:13.322Z,66.40
2017-10-05T23:10:41.426Z,66.40
2017-10-05T23:13:08.615Z,66.50
2017-10-05T23:15:36.546Z,66.50
2017-10-05T23:18:03.768Z,66.50
2017-10-05T23:20:30.943Z,66.30
2017-10-05T23:22:58.911Z,66.50
2017-10-05T23:25:27.079Z,66.50
2017-10-05T23:27:54.302Z,66.70
2017-10-05T23:30:21.451Z,66.60
2017-10-05T23:32:48.609Z,67.10
2017-10-05T23:35:16.577Z,66.70
2017-10-05T23:37:43.737Z,66.90
2017-10-05T23:40:10.918Z,66.90
2017-10-05T23:42:38.066Z,67.00
2017-10-05T23:45:05.250Z,66.60
2017-10-05T23:47:34.080Z,66.40
2017-10-05T23:50:01.231Z,66.20
2017-10-05T23:52:28.415Z,66.20
2017-10-05T23:54:55.623Z,66.00
2017-10-05T23:57:24.398Z,66.00
2017-10-05T23:59:51.544Z,66.00
